sensor_id;sensor_type;location;lat;lon;timestamp;P1;durP1;ratioP1;P2;durP2;ratioP2
5678;SDS011;2862;52.560;13.566;2023-09-07T00:07:33;19.07;;;4.63;;
5678;SDS011;2862;52.560;13.566;2023-09-07T00:17:37;19.40;;;4.93;;
5678;SDS011;2862;52.560;13.566;2023-09-07T00:27:40;18.77;;;4.90;;
5678;SDS011;2862;52.560;13.566;2023-09-07T00:37:45;22.97;;;5.63;;
5678;SDS011;2862;52.560;13.566;2023-09-07T00:47:48;23.77;;;7.13;;
5678;SDS011;2862;52.560;13.566;2023-09-07T00:57:52;20.13;;;4.63;;
5678;SDS011;2862;52.560;13.566;2023-09-07T01:07:57;18.30;;;4.10;;
5678;SDS011;2862;52.560;13.566;2023-09-07T01:18:05;19.00;;;4.60;;
5678;SDS011;2862;52.560;13.566;2023-09-07T01:28:23;21.57;;;4.70;;
5678;SDS011;2862;52.560;13.566;2023-09-07T01:38:26;19.97;;;4.40;;
5678;SDS011;2862;52.560;13.566;2023-09-07T01:48:31;21.00;;;5.13;;
5678;SDS011;2862;52.560;13.566;2023-09-07T01:58:34;21.60;;;5.50;;
5678;SDS011;2862;52.560;13.566;2023-09-07T02:08:40;22.53;;;5.40;;
5678;SDS011;2862;52.560;13.566;2023-09-07T02:18:44;21.27;;;5.70;;
5678;SDS011;2862;52.560;13.566;2023-09-07T02:28:51;22.70;;;6.87;;
5678;SDS011;2862;52.560;13.566;2023-09-07T02:38:54;22.80;;;6.60;;
5678;SDS011;2862;52.560;13.566;2023-09-07T02:48:59;24.60;;;7.03;;
5678;SDS011;2862;52.560;13.566;2023-09-07T02:59:03;19.70;;;6.27;;
5678;SDS011;2862;52.560;13.566;2023-09-07T03:09:08;23.13;;;7.53;;
5678;SDS011;2862;52.560;13.566;2023-09-07T03:19:12;22.80;;;7.10;;
5678;SDS011;2862;52.560;13.566;2023-09-07T03:29:17;21.90;;;7.50;;
5678;SDS011;2862;52.560;13.566;2023-09-07T03:39:20;26.13;;;7.63;;
5678;SDS011;2862;52.560;13.566;2023-09-07T03:49:26;27.13;;;6.70;;
5678;SDS011;2862;52.560;13.566;2023-09-07T03:59:29;22.57;;;7.30;;
5678;SDS011;2862;52.560;13.566;2023-09-07T04:09:34;23.17;;;8.43;;
5678;SDS011;2862;52.560;13.566;2023-09-07T04:19:37;21.90;;;7.40;;
5678;SDS011;2862;52.560;13.566;2023-09-07T04:29:41;26.57;;;8.77;;
5678;SDS011;2862;52.560;13.566;2023-09-07T04:39:44;25.77;;;9.50;;
5678;SDS011;2862;52.560;13.566;2023-09-07T04:49:50;26.70;;;8.20;;
5678;SDS011;2862;52.560;13.566;2023-09-07T04:59:56;34.77;;;8.03;;
5678;SDS011;2862;52.560;13.566;2023-09-07T05:10:00;22.70;;;9.23;;
5678;SDS011;2862;52.560;13.566;2023-09-07T05:20:05;21.57;;;6.97;;
5678;SDS011;2862;52.560;13.566;2023-09-07T05:30:12;25.07;;;6.87;;
5678;SDS011;2862;52.560;13.566;2023-09-07T05:40:16;23.90;;;7.30;;
5678;SDS011;2862;52.560;13.566;2023-09-07T05:50:21;21.40;;;6.60;;
5678;SDS011;2862;52.560;13.566;2023-09-07T06:00:24;22.30;;;7.13;;
5678;SDS011;2862;52.560;13.566;2023-09-07T06:10:30;25.90;;;7.30;;
5678;SDS011;2862;52.560;13.566;2023-09-07T06:20:33;18.33;;;6.23;;
5678;SDS011;2862;52.560;13.566;2023-09-07T06:30:38;20.60;;;5.53;;
5678;SDS011;2862;52.560;13.566;2023-09-07T06:40:47;19.30;;;6.00;;
5678;SDS011;2862;52.560;13.566;2023-09-07T06:50:53;22.10;;;5.30;;
5678;SDS011;2862;52.560;13.566;2023-09-07T07:00:59;22.63;;;5.57;;
5678;SDS011;2862;52.560;13.566;2023-09-07T07:11:08;17.97;;;4.70;;
5678;SDS011;2862;52.560;13.566;2023-09-07T07:21:12;19.03;;;4.37;;
5678;SDS011;2862;52.560;13.566;2023-09-07T07:31:16;23.93;;;5.67;;
5678;SDS011;2862;52.560;13.566;2023-09-07T07:41:20;16.60;;;4.07;;
5678;SDS011;2862;52.560;13.566;2023-09-07T07:51:25;26.50;;;5.60;;
5678;SDS011;2862;52.560;13.566;2023-09-07T08:01:29;15.20;;;3.80;;
5678;SDS011;2862;52.560;13.566;2023-09-07T08:11:35;16.80;;;3.93;;
5678;SDS011;2862;52.560;13.566;2023-09-07T08:21:43;18.50;;;4.33;;
5678;SDS011;2862;52.560;13.566;2023-09-07T08:42:41;18.40;;;4.40;;
5678;SDS011;2862;52.560;13.566;2023-09-07T08:52:45;26.23;;;3.50;;
5678;SDS011;2862;52.560;13.566;2023-09-07T09:02:49;19.97;;;3.53;;
5678;SDS011;2862;52.560;13.566;2023-09-07T09:12:57;29.87;;;3.60;;
5678;SDS011;2862;52.560;13.566;2023-09-07T09:23:03;19.83;;;5.17;;
5678;SDS011;2862;52.560;13.566;2023-09-07T09:33:07;19.47;;;4.20;;
5678;SDS011;2862;52.560;13.566;2023-09-07T09:43:10;16.73;;;2.93;;
5678;SDS011;2862;52.560;13.566;2023-09-07T09:53:16;24.13;;;4.10;;
5678;SDS011;2862;52.560;13.566;2023-09-07T10:03:22;23.60;;;4.00;;
5678;SDS011;2862;52.560;13.566;2023-09-07T10:13:30;23.00;;;3.73;;
5678;SDS011;2862;52.560;13.566;2023-09-07T10:23:35;16.70;;;3.47;;
5678;SDS011;2862;52.560;13.566;2023-09-07T10:33:40;19.00;;;3.10;;
5678;SDS011;2862;52.560;13.566;2023-09-07T10:43:47;16.57;;;2.20;;
5678;SDS011;2862;52.560;13.566;2023-09-07T10:53:53;16.87;;;2.43;;
5678;SDS011;2862;52.560;13.566;2023-09-07T11:03:56;14.77;;;2.23;;
5678;SDS011;2862;52.560;13.566;2023-09-07T11:14:01;17.20;;;2.73;;
5678;SDS011;2862;52.560;13.566;2023-09-07T11:24:07;21.43;;;2.70;;
5678;SDS011;2862;52.560;13.566;2023-09-07T11:34:12;16.20;;;2.10;;
5678;SDS011;2862;52.560;13.566;2023-09-07T11:44:16;17.97;;;2.90;;
5678;SDS011;2862;52.560;13.566;2023-09-07T11:54:20;18.97;;;3.20;;
5678;SDS011;2862;52.560;13.566;2023-09-07T12:04:27;22.20;;;2.27;;
5678;SDS011;2862;52.560;13.566;2023-09-07T12:14:32;15.50;;;2.33;;
5678;SDS011;2862;52.560;13.566;2023-09-07T12:24:35;16.50;;;2.37;;
5678;SDS011;2862;52.560;13.566;2023-09-07T12:34:39;15.03;;;2.50;;
5678;SDS011;2862;52.560;13.566;2023-09-07T12:44:42;17.63;;;2.23;;
5678;SDS011;2862;52.560;13.566;2023-09-07T12:54:49;15.00;;;1.87;;
5678;SDS011;2862;52.560;13.566;2023-09-07T13:04:55;15.03;;;2.33;;
5678;SDS011;2862;52.560;13.566;2023-09-07T13:15:09;14.53;;;2.17;;
5678;SDS011;2862;52.560;13.566;2023-09-07T13:25:12;14.10;;;1.30;;
5678;SDS011;2862;52.560;13.566;2023-09-07T13:35:18;15.67;;;1.93;;
5678;SDS011;2862;52.560;13.566;2023-09-07T13:45:21;17.00;;;3.30;;
5678;SDS011;2862;52.560;13.566;2023-09-07T13:55:25;14.83;;;1.60;;
5678;SDS011;2862;52.560;13.566;2023-09-07T14:05:28;15.77;;;2.30;;
5678;SDS011;2862;52.560;13.566;2023-09-07T14:15:33;15.70;;;2.37;;
5678;SDS011;2862;52.560;13.566;2023-09-07T14:25:36;16.17;;;2.73;;
5678;SDS011;2862;52.560;13.566;2023-09-07T14:35:44;18.10;;;2.40;;
5678;SDS011;2862;52.560;13.566;2023-09-07T14:45:48;17.70;;;2.67;;
5678;SDS011;2862;52.560;13.566;2023-09-07T14:55:55;15.80;;;2.50;;
5678;SDS011;2862;52.560;13.566;2023-09-07T15:06:04;16.73;;;2.57;;
5678;SDS011;2862;52.560;13.566;2023-09-07T15:16:34;15.60;;;2.60;;
5678;SDS011;2862;52.560;13.566;2023-09-07T15:27:27;19.07;;;3.03;;
5678;SDS011;2862;52.560;13.566;2023-09-07T15:38:24;13.90;;;1.93;;
5678;SDS011;2862;52.560;13.566;2023-09-07T15:48:48;17.17;;;3.50;;
5678;SDS011;2862;52.560;13.566;2023-09-07T15:59:32;17.20;;;2.87;;
5678;SDS011;2862;52.560;13.566;2023-09-07T16:09:35;16.87;;;2.53;;
5678;SDS011;2862;52.560;13.566;2023-09-07T16:19:40;17.10;;;2.77;;
5678;SDS011;2862;52.560;13.566;2023-09-07T16:29:43;23.47;;;5.30;;
5678;SDS011;2862;52.560;13.566;2023-09-07T16:39:47;17.30;;;3.80;;
5678;SDS011;2862;52.560;13.566;2023-09-07T16:49:53;25.53;;;4.77;;
5678;SDS011;2862;52.560;13.566;2023-09-07T16:59:58;19.97;;;3.87;;
5678;SDS011;2862;52.560;13.566;2023-09-07T17:10:01;18.87;;;4.50;;
5678;SDS011;2862;52.560;13.566;2023-09-07T17:20:06;19.03;;;3.63;;
5678;SDS011;2862;52.560;13.566;2023-09-07T17:30:10;16.13;;;3.20;;
5678;SDS011;2862;52.560;13.566;2023-09-07T17:40:15;19.70;;;4.57;;
5678;SDS011;2862;52.560;13.566;2023-09-07T17:50:18;20.00;;;4.43;;
5678;SDS011;2862;52.560;13.566;2023-09-07T18:00:26;21.00;;;4.37;;
5678;SDS011;2862;52.560;13.566;2023-09-07T18:10:29;22.17;;;4.73;;
5678;SDS011;2862;52.560;13.566;2023-09-07T18:20:34;18.30;;;4.40;;
5678;SDS011;2862;52.560;13.566;2023-09-07T18:30:39;17.57;;;4.67;;
5678;SDS011;2862;52.560;13.566;2023-09-07T18:40:44;24.10;;;5.00;;
5678;SDS011;2862;52.560;13.566;2023-09-07T18:50:48;24.10;;;4.90;;
5678;SDS011;2862;52.560;13.566;2023-09-07T19:00:53;21.17;;;5.27;;
5678;SDS011;2862;52.560;13.566;2023-09-07T19:10:56;23.27;;;4.83;;
5678;SDS011;2862;52.560;13.566;2023-09-07T19:21:00;20.90;;;4.70;;
5678;SDS011;2862;52.560;13.566;2023-09-07T19:31:13;19.10;;;5.10;;
5678;SDS011;2862;52.560;13.566;2023-09-07T19:41:17;24.30;;;4.50;;
5678;SDS011;2862;52.560;13.566;2023-09-07T19:51:20;19.47;;;4.43;;
5678;SDS011;2862;52.560;13.566;2023-09-07T20:01:26;22.03;;;5.60;;
5678;SDS011;2862;52.560;13.566;2023-09-07T20:11:29;18.30;;;4.53;;
5678;SDS011;2862;52.560;13.566;2023-09-07T20:21:36;27.20;;;6.23;;
5678;SDS011;2862;52.560;13.566;2023-09-07T20:31:41;23.80;;;5.83;;
5678;SDS011;2862;52.560;13.566;2023-09-07T20:41:47;19.77;;;5.00;;
5678;SDS011;2862;52.560;13.566;2023-09-07T20:51:53;22.10;;;6.23;;
5678;SDS011;2862;52.560;13.566;2023-09-07T21:01:57;25.50;;;6.10;;
5678;SDS011;2862;52.560;13.566;2023-09-07T21:12:00;20.70;;;5.00;;
5678;SDS011;2862;52.560;13.566;2023-09-07T21:22:06;23.30;;;6.20;;
5678;SDS011;2862;52.560;13.566;2023-09-07T21:32:10;21.63;;;5.60;;
5678;SDS011;2862;52.560;13.566;2023-09-07T21:42:13;21.43;;;5.57;;
5678;SDS011;2862;52.560;13.566;2023-09-07T21:52:17;19.80;;;5.43;;
5678;SDS011;2862;52.560;13.566;2023-09-07T22:02:22;22.20;;;6.03;;
5678;SDS011;2862;52.560;13.566;2023-09-07T22:12:25;24.33;;;7.17;;
5678;SDS011;2862;52.560;13.566;2023-09-07T22:22:33;22.70;;;6.70;;
5678;SDS011;2862;52.560;13.566;2023-09-07T22:32:36;28.17;;;6.50;;
5678;SDS011;2862;52.560;13.566;2023-09-07T22:42:40;23.23;;;7.13;;
5678;SDS011;2862;52.560;13.566;2023-09-07T22:52:43;26.60;;;7.13;;
5678;SDS011;2862;52.560;13.566;2023-09-07T23:02:48;22.37;;;5.97;;
5678;SDS011;2862;52.560;13.566;2023-09-07T23:12:51;24.80;;;7.03;;
5678;SDS011;2862;52.560;13.566;2023-09-07T23:22:55;25.70;;;6.63;;
5678;SDS011;2862;52.560;13.566;2023-09-07T23:32:58;28.17;;;7.57;;
5678;SDS011;2862;52.560;13.566;2023-09-07T23:43:03;24.07;;;7.23;;
5678;SDS011;2862;52.560;13.566;2023-09-07T23:53:06;25.13;;;7.43;;
